Time;durP1;ratioP1;P1;durP2;ratioP2;P2;SDS_P1;SDS_P2;PMS_P1;PMS_P2;Temp;Humidity;BMP_temperature;BMP_pressure;BME280_temperature;BME280_humidity;BME280_pressure;Samples;Min_cycle;Max_cycle;Signal;HPM_P1;HPM_P2
2023/12/23 00:00:52;;;;;;;2.00;1.65;;;;;;;;;;2080511;28;20044;-75
2023/12/23 00:02:11;;;;;;;2.88;1.65;;;;;;;;;;2076454;28;20017;-75
2023/12/23 00:03:30;;;;;;;2.33;1.67;;;;;;;;;;2079577;28;20025;-75
2023/12/23 00:04:49;;;;;;;1.73;1.50;;;;;;;;;;2082545;28;20057;-74
2023/12/23 00:06:09;;;;;;;2.90;1.70;;;;;;;;;;2080869;28;20026;-75
2023/12/23 00:07:28;;;;;;;2.00;1.48;;;;;;;;;;2075309;28;20502;-75
2023/12/23 00:08:47;;;;;;;2.40;1.75;;;;;;;;;;2073503;28;20073;-76
2023/12/23 00:10:06;;;;;;;2.00;1.20;;;;;;;;;;2077171;28;20033;-75
2023/12/23 00:11:25;;;;;;;1.65;1.48;;;;;;;;;;2075225;28;20152;-75
2023/12/23 00:12:44;;;;;;;2.10;1.75;;;;;;;;;;2079517;28;20033;-76
2023/12/23 00:14:03;;;;;;;2.85;1.83;;;;;;;;;;2081581;28;20033;-75
2023/12/23 00:15:22;;;;;;;1.88;1.60;;;;;;;;;;2081583;28;20029;-75
2023/12/23 00:16:42;;;;;;;2.90;1.70;;;;;;;;;;2073324;28;20030;-75
2023/12/23 00:18:01;;;;;;;2.35;1.90;;;;;;;;;;2079426;28;20114;-76
2023/12/23 00:19:21;;;;;;;2.38;2.17;;;;;;;;;;2082350;28;20025;-75
2023/12/23 00:20:41;;;;;;;2.13;1.92;;;;;;;;;;2077487;28;20196;-75
2023/12/23 00:21:59;;;;;;;4.03;2.05;;;;;;;;;;2077482;28;20025;-75
2023/12/23 00:23:18;;;;;;;1.88;1.67;;;;;;;;;;2080762;28;20072;-75
2023/12/23 00:24:37;;;;;;;3.13;1.88;;;;;;;;;;2079783;28;20037;-76
2023/12/23 00:25:56;;;;;;;1.95;1.50;;;;;;;;;;2081094;28;20676;-75
2023/12/23 00:27:15;;;;;;;2.35;1.70;;;;;;;;;;2074451;28;20029;-75
2023/12/23 00:28:33;;;;;;;2.22;1.80;;;;;;;;;;2077736;28;20037;-75
2023/12/23 00:29:52;;;;;;;1.70;1.60;;;;;;;;;;2076330;28;20033;-75
2023/12/23 00:31:12;;;;;;;2.20;2.00;;;;;;;;;;2073710;28;20045;-75
2023/12/23 00:32:30;;;;;;;2.75;1.70;;;;;;;;;;2070825;28;20543;-75
2023/12/23 00:33:49;;;;;;;2.25;2.00;;;;;;;;;;2078670;28;20475;-75
2023/12/23 00:35:08;;;;;;;2.47;1.73;;;;;;;;;;2081669;28;20029;-75
2023/12/23 00:36:27;;;;;;;2.35;2.03;;;;;;;;;;2077025;28;20411;-75
2023/12/23 00:37:46;;;;;;;1.85;1.70;;;;;;;;;;2079610;28;20022;-75
2023/12/23 00:39:05;;;;;;;2.75;1.60;;;;;;;;;;2079466;28;20025;-75
2023/12/23 00:40:25;;;;;;;1.92;1.67;;;;;;;;;;2074370;28;20030;-76
2023/12/23 00:41:44;;;;;;;2.05;1.88;;;;;;;;;;2072824;28;20037;-75
2023/12/23 00:43:04;;;;;;;1.42;1.30;;;;;;;;;;2071342;28;20117;-76
2023/12/23 00:44:23;;;;;;;2.13;1.73;;;;;;;;;;2079169;28;20670;-75
2023/12/23 00:45:42;;;;;;;1.60;1.50;;;;;;;;;;2080843;28;20510;-75
2023/12/23 00:47:01;;;;;;;4.05;1.52;;;;;;;;;;2074078;28;20030;-76
2023/12/23 00:48:19;;;;;;;2.42;1.83;;;;;;;;;;2070887;28;20039;-75
2023/12/23 00:49:38;;;;;;;3.30;1.75;;;;;;;;;;2079184;28;21640;-74
2023/12/23 00:50:57;;;;;;;2.58;1.95;;;;;;;;;;2081079;28;20042;-75
2023/12/23 00:52:16;;;;;;;3.00;1.30;;;;;;;;;;2082357;28;20030;-76
2023/12/23 00:53:35;;;;;;;2.58;2.10;;;;;;;;;;2079691;28;20029;-75
2023/12/23 00:54:54;;;;;;;2.08;1.70;;;;;;;;;;2079719;28;20038;-76
2023/12/23 00:56:22;;;;;;;2.00;1.70;;;;;;;;;;2075976;28;20053;-77
2023/12/23 00:57:41;;;;;;;1.60;1.50;;;;;;;;;;2079788;28;20080;-75
2023/12/23 00:59:00;;;;;;;2.67;1.67;;;;;;;;;;2075964;28;20037;-75
2023/12/23 01:00:19;;;;;;;2.45;1.77;;;;;;;;;;2079133;28;20029;-76
2023/12/23 01:01:41;;;;;;;1.73;1.58;;;;;;;;;;2075332;28;20030;-75
2023/12/23 01:03:00;;;;;;;3.28;1.90;;;;;;;;;;2079883;28;20557;-75
2023/12/23 01:04:19;;;;;;;3.47;1.75;;;;;;;;;;2081297;28;20049;-75
2023/12/23 01:05:38;;;;;;;1.50;1.40;;;;;;;;;;2079197;28;20034;-75
2023/12/23 01:06:57;;;;;;;2.25;1.98;;;;;;;;;;2079839;28;20097;-75
2023/12/23 01:08:16;;;;;;;1.98;1.40;;;;;;;;;;2076386;28;20491;-75
2023/12/23 01:09:34;;;;;;;1.80;1.50;;;;;;;;;;2078297;28;20025;-75
2023/12/23 01:10:53;;;;;;;1.77;1.50;;;;;;;;;;2081536;28;20037;-76
2023/12/23 01:12:12;;;;;;;2.50;1.33;;;;;;;;;;2076777;28;20038;-75
2023/12/23 01:13:31;;;;;;;2.25;1.70;;;;;;;;;;2079533;28;20038;-75
2023/12/23 01:14:50;;;;;;;2.10;1.83;;;;;;;;;;2079712;28;20387;-75
2023/12/23 01:16:09;;;;;;;1.60;1.50;;;;;;;;;;2080632;28;20382;-75
2023/12/23 01:17:28;;;;;;;5.00;2.25;;;;;;;;;;2077680;28;21095;-75
2023/12/23 01:18:47;;;;;;;3.30;2.10;;;;;;;;;;2073945;28;20026;-75
2023/12/23 01:20:06;;;;;;;2.25;1.98;;;;;;;;;;2071399;28;20018;-76
2023/12/23 01:21:26;;;;;;;3.25;2.05;;;;;;;;;;2072557;28;20114;-75
2023/12/23 01:22:45;;;;;;;3.08;2.10;;;;;;;;;;2077022;28;20033;-75
2023/12/23 01:24:04;;;;;;;2.33;2.08;;;;;;;;;;2081970;28;20055;-75
2023/12/23 01:25:23;;;;;;;2.42;1.90;;;;;;;;;;2074494;28;20026;-75
2023/12/23 01:26:42;;;;;;;2.45;1.70;;;;;;;;;;2078087;28;20550;-75
2023/12/23 01:28:04;;;;;;;2.17;1.83;;;;;;;;;;2074601;28;20026;-76
2023/12/23 01:29:23;;;;;;;2.95;1.85;;;;;;;;;;2072845;28;20042;-75
2023/12/23 01:30:42;;;;;;;2.60;1.63;;;;;;;;;;2072134;28;20029;-75
2023/12/23 01:32:01;;;;;;;2.38;2.17;;;;;;;;;;2077792;28;21181;-75
2023/12/23 01:33:20;;;;;;;3.72;2.10;;;;;;;;;;2075466;28;20033;-75
2023/12/23 01:34:39;;;;;;;3.78;2.15;;;;;;;;;;2078288;28;20490;-75
2023/12/23 01:35:58;;;;;;;2.40;2.20;;;;;;;;;;2080174;28;20517;-76
2023/12/23 01:37:16;;;;;;;2.92;2.38;;;;;;;;;;2079486;28;20037;-77
2023/12/23 01:38:35;;;;;;;2.05;1.65;;;;;;;;;;2082955;28;20510;-75
2023/12/23 01:39:54;;;;;;;5.63;2.20;;;;;;;;;;2082061;28;20033;-76
2023/12/23 01:41:13;;;;;;;2.22;1.80;;;;;;;;;;2079336;28;20033;-75
2023/12/23 01:42:32;;;;;;;2.55;2.35;;;;;;;;;;2081274;28;20045;-75
2023/12/23 01:43:51;;;;;;;1.95;1.80;;;;;;;;;;2074752;28;20030;-76
2023/12/23 01:45:11;;;;;;;1.92;1.63;;;;;;;;;;2080298;28;20026;-75
2023/12/23 01:46:30;;;;;;;2.67;1.92;;;;;;;;;;2079755;28;20506;-75
2023/12/23 01:47:50;;;;;;;2.92;2.17;;;;;;;;;;2073507;28;20033;-76
2023/12/23 01:49:09;;;;;;;2.80;2.30;;;;;;;;;;2073490;28;20041;-74
2023/12/23 01:50:29;;;;;;;2.63;2.40;;;;;;;;;;2080791;28;20049;-75
2023/12/23 01:51:49;;;;;;;2.35;2.13;;;;;;;;;;2080788;28;20061;-75
2023/12/23 01:53:08;;;;;;;2.13;1.92;;;;;;;;;;2079915;28;20105;-75
2023/12/23 01:54:28;;;;;;;3.42;1.98;;;;;;;;;;2075249;28;20037;-76
2023/12/23 01:55:47;;;;;;;2.95;2.10;;;;;;;;;;2078340;28;20030;-75
2023/12/23 01:57:06;;;;;;;4.22;2.45;;;;;;;;;;2074087;28;20057;-75
2023/12/23 01:58:26;;;;;;;4.70;2.28;;;;;;;;;;2078476;28;20022;-75
2023/12/23 01:59:45;;;;;;;2.17;1.90;;;;;;;;;;2073500;28;20030;-74
2023/12/23 02:01:04;;;;;;;3.00;2.08;;;;;;;;;;2079221;28;20026;-75
2023/12/23 02:02:23;;;;;;;2.15;1.95;;;;;;;;;;2075757;28;20021;-76
2023/12/23 02:03:43;;;;;;;2.90;2.10;;;;;;;;;;2071209;28;20030;-76
2023/12/23 02:05:02;;;;;;;2.50;2.05;;;;;;;;;;2076178;28;20033;-75
2023/12/23 02:06:22;;;;;;;1.98;1.77;;;;;;;;;;2080957;28;20057;-75
2023/12/23 02:07:44;;;;;;;3.72;1.88;;;;;;;;;;2079142;28;20033;-75
2023/12/23 02:09:03;;;;;;;5.07;2.20;;;;;;;;;;2075276;28;20041;-76
2023/12/23 02:10:23;;;;;;;2.72;2.20;;;;;;;;;;2078481;28;20026;-75
2023/12/23 02:11:54;;;;;;;1.90;1.75;;;;;;;;;;2074308;28;20025;-75
2023/12/23 02:13:13;;;;;;;3.10;1.92;;;;;;;;;;2080045;28;20037;-75
2023/12/23 02:14:36;;;;;;;2.75;2.03;;;;;;;;;;2080703;28;20030;-75
2023/12/23 02:15:56;;;;;;;1.90;1.60;;;;;;;;;;2081367;28;20033;-75
2023/12/23 02:17:15;;;;;;;2.33;1.88;;;;;;;;;;2075085;28;20112;-75
2023/12/23 02:18:34;;;;;;;1.50;1.33;;;;;;;;;;2077735;28;20498;-75
2023/12/23 02:19:53;;;;;;;2.13;1.77;;;;;;;;;;2080053;28;20021;-75
2023/12/23 02:21:12;;;;;;;1.45;1.35;;;;;;;;;;2079364;28;20025;-75
2023/12/23 02:22:31;;;;;;;2.53;2.00;;;;;;;;;;2081458;28;20486;-75
2023/12/23 02:23:50;;;;;;;2.40;1.45;;;;;;;;;;2073724;28;20025;-75
2023/12/23 02:25:09;;;;;;;2.33;1.80;;;;;;;;;;2068881;28;20038;-75
2023/12/23 02:26:30;;;;;;;2.85;1.50;;;;;;;;;;2078856;28;20044;-75
2023/12/23 02:27:52;;;;;;;1.60;1.50;;;;;;;;;;2080867;28;20045;-75
2023/12/23 02:29:12;;;;;;;4.10;1.57;;;;;;;;;;2080234;28;20088;-75
2023/12/23 02:30:31;;;;;;;3.35;1.80;;;;;;;;;;2074899;28;20239;-75
2023/12/23 02:31:50;;;;;;;1.90;1.40;;;;;;;;;;2078772;28;20483;-76
2023/12/23 02:33:10;;;;;;;1.90;1.75;;;;;;;;;;2074823;28;20089;-75
2023/12/23 02:34:30;;;;;;;2.47;1.20;;;;;;;;;;2071350;28;20056;-76
2023/12/23 02:35:52;;;;;;;1.75;1.65;;;;;;;;;;2077313;28;20068;-75
2023/12/23 02:37:11;;;;;;;2.47;1.40;;;;;;;;;;2079752;28;20017;-75
2023/12/23 02:38:30;;;;;;;1.90;1.73;;;;;;;;;;2081101;28;20033;-75
2023/12/23 02:39:49;;;;;;;2.13;1.42;;;;;;;;;;2076648;28;20030;-75
2023/12/23 02:41:08;;;;;;;2.63;1.70;;;;;;;;;;2076020;28;20038;-75
2023/12/23 02:42:27;;;;;;;1.55;1.45;;;;;;;;;;2077730;28;20148;-75
2023/12/23 02:43:46;;;;;;;1.65;1.15;;;;;;;;;;2081883;28;20601;-75
2023/12/23 02:45:06;;;;;;;2.28;1.80;;;;;;;;;;2075939;28;20033;-74
2023/12/23 02:46:25;;;;;;;2.58;1.63;;;;;;;;;;2073119;28;20120;-75
2023/12/23 02:47:43;;;;;;;2.25;1.85;;;;;;;;;;2072461;28;20029;-75
2023/12/23 02:49:02;;;;;;;1.45;1.35;;;;;;;;;;2072416;28;20033;-75
2023/12/23 02:50:21;;;;;;;3.10;1.35;;;;;;;;;;2074379;28;20058;-75
2023/12/23 02:51:40;;;;;;;2.42;1.50;;;;;;;;;;2078959;28;20494;-74
2023/12/23 02:53:00;;;;;;;1.55;1.35;;;;;;;;;;2080138;28;20033;-75
2023/12/23 02:54:19;;;;;;;1.48;1.30;;;;;;;;;;2079757;28;20029;-76
2023/12/23 02:55:38;;;;;;;2.67;1.52;;;;;;;;;;2075896;28;20514;-75
2023/12/23 02:56:57;;;;;;;1.65;1.48;;;;;;;;;;2078096;28;20057;-75
2023/12/23 02:58:16;;;;;;;1.88;1.67;;;;;;;;;;2075018;28;20026;-74
2023/12/23 02:59:35;;;;;;;1.42;1.30;;;;;;;;;;2077156;28;20030;-76
2023/12/23 03:00:54;;;;;;;1.40;1.30;;;;;;;;;;2073491;28;20478;-75
2023/12/23 03:02:13;;;;;;;1.70;1.60;;;;;;;;;;2079300;28;20037;-76
2023/12/23 03:03:33;;;;;;;2.03;1.60;;;;;;;;;;2080917;28;20487;-75
2023/12/23 03:04:53;;;;;;;2.20;2.00;;;;;;;;;;2081400;28;20474;-75
2023/12/23 03:06:13;;;;;;;1.35;1.20;;;;;;;;;;2073968;28;20033;-76
2023/12/23 03:07:31;;;;;;;1.92;1.50;;;;;;;;;;2078292;28;20033;-76
2023/12/23 03:08:51;;;;;;;2.00;1.55;;;;;;;;;;2085006;28;20053;-75
2023/12/23 03:10:09;;;;;;;1.95;1.30;;;;;;;;;;2083989;28;20025;-77
2023/12/23 03:11:29;;;;;;;1.52;1.42;;;;;;;;;;2084457;28;20034;-75
2023/12/23 03:12:48;;;;;;;1.30;1.20;;;;;;;;;;2090324;28;20034;-77
2023/12/23 03:14:07;;;;;;;2.40;1.40;;;;;;;;;;2090927;28;20033;-73
2023/12/23 03:15:26;;;;;;;1.55;1.42;;;;;;;;;;2078549;28;20030;-75
2023/12/23 03:16:45;;;;;;;3.78;1.40;;;;;;;;;;2080304;28;20033;-73
2023/12/23 03:18:04;;;;;;;1.40;1.20;;;;;;;;;;2078444;28;20038;-75
2023/12/23 03:19:23;;;;;;;2.70;1.40;;;;;;;;;;2083296;28;20507;-73
2023/12/23 03:20:42;;;;;;;1.25;0.98;;;;;;;;;;2090760;28;20038;-77
2023/12/23 03:22:02;;;;;;;1.08;0.98;;;;;;;;;;2086093;28;20042;-73
2023/12/23 03:23:21;;;;;;;0.73;0.73;;;;;;;;;;2090355;28;20061;-77
2023/12/23 03:24:40;;;;;;;1.33;0.80;;;;;;;;;;2086097;28;20030;-75
2023/12/23 03:26:00;;;;;;;1.00;0.70;;;;;;;;;;2078249;28;20026;-75
2023/12/23 03:27:19;;;;;;;1.23;0.95;;;;;;;;;;2077583;28;20039;-75
2023/12/23 03:28:38;;;;;;;0.88;0.57;;;;;;;;;;2085637;28;20041;-77
2023/12/23 03:29:57;;;;;;;1.05;0.93;;;;;;;;;;2083221;28;20034;-75
2023/12/23 03:31:16;;;;;;;0.63;0.63;;;;;;;;;;2079228;28;20034;-76
2023/12/23 03:32:35;;;;;;;1.40;1.10;;;;;;;;;;2082625;28;20092;-76
2023/12/23 03:33:54;;;;;;;1.10;1.00;;;;;;;;;;2075009;28;20034;-75
2023/12/23 03:35:13;;;;;;;1.65;0.98;;;;;;;;;;2074014;28;20081;-76
2023/12/23 03:36:31;;;;;;;1.33;0.85;;;;;;;;;;2073929;28;20022;-77
2023/12/23 03:37:50;;;;;;;1.27;1.10;;;;;;;;;;2074218;28;20029;-75
2023/12/23 03:39:09;;;;;;;1.17;1.08;;;;;;;;;;2080286;28;20018;-75
2023/12/23 03:40:28;;;;;;;1.23;0.98;;;;;;;;;;2075778;28;20022;-75
2023/12/23 03:41:47;;;;;;;1.13;1.02;;;;;;;;;;2072500;28;20058;-75
2023/12/23 03:43:07;;;;;;;1.65;1.17;;;;;;;;;;2081031;28;20030;-75
2023/12/23 03:44:26;;;;;;;1.58;1.38;;;;;;;;;;2082579;28;20037;-75
2023/12/23 03:45:45;;;;;;;1.50;1.40;;;;;;;;;;2080899;28;20033;-75
2023/12/23 03:47:04;;;;;;;2.95;1.50;;;;;;;;;;2077048;28;20041;-75
2023/12/23 03:48:24;;;;;;;1.80;1.42;;;;;;;;;;2080587;28;20037;-75
2023/12/23 03:49:43;;;;;;;1.23;1.13;;;;;;;;;;2081819;28;20037;-75
2023/12/23 03:51:02;;;;;;;1.50;1.30;;;;;;;;;;2082606;28;20033;-75
2023/12/23 03:52:21;;;;;;;1.27;1.00;;;;;;;;;;2081083;28;20030;-75
2023/12/23 03:53:40;;;;;;;2.28;1.38;;;;;;;;;;2082046;28;20037;-76
2023/12/23 03:54:59;;;;;;;2.67;1.50;;;;;;;;;;2077874;28;20037;-75
2023/12/23 03:56:18;;;;;;;1.13;1.02;;;;;;;;;;2074626;28;20022;-75
2023/12/23 03:57:37;;;;;;;1.30;1.20;;;;;;;;;;2079056;28;20026;-75
2023/12/23 03:58:58;;;;;;;1.70;1.48;;;;;;;;;;2075698;28;20030;-75
2023/12/23 04:00:16;;;;;;;1.20;1.10;;;;;;;;;;2079292;28;20026;-75
2023/12/23 04:01:36;;;;;;;2.72;1.30;;;;;;;;;;2076632;28;20070;-75
2023/12/23 04:02:55;;;;;;;1.65;1.40;;;;;;;;;;2079978;28;20053;-75
2023/12/23 04:04:14;;;;;;;2.25;1.15;;;;;;;;;;2081740;28;20605;-75
2023/12/23 04:05:33;;;;;;;1.65;1.10;;;;;;;;;;2080925;28;20029;-75
2023/12/23 04:06:52;;;;;;;1.92;1.20;;;;;;;;;;2082064;28;20018;-75
2023/12/23 04:08:11;;;;;;;1.10;1.00;;;;;;;;;;2076296;28;20113;-75
2023/12/23 04:09:30;;;;;;;2.47;1.50;;;;;;;;;;2078548;28;20478;-75
2023/12/23 04:10:49;;;;;;;2.03;1.30;;;;;;;;;;2075810;28;20034;-75
2023/12/23 04:12:09;;;;;;;2.17;1.33;;;;;;;;;;2074656;28;20022;-77
2023/12/23 04:13:29;;;;;;;1.55;1.42;;;;;;;;;;2079115;28;20480;-75
2023/12/23 04:14:47;;;;;;;1.35;1.25;;;;;;;;;;2076489;28;20022;-76
2023/12/23 04:16:07;;;;;;;1.95;1.77;;;;;;;;;;2079402;28;20055;-75
2023/12/23 04:17:26;;;;;;;2.88;1.52;;;;;;;;;;2076398;28;20100;-75
2023/12/23 04:18:45;;;;;;;1.80;1.52;;;;;;;;;;2079091;28;20033;-75
2023/12/23 04:20:04;;;;;;;1.90;1.80;;;;;;;;;;2080950;28;20022;-75
2023/12/23 04:21:23;;;;;;;1.75;1.65;;;;;;;;;;2074985;28;20030;-75
2023/12/23 04:22:47;;;;;;;2.58;1.55;;;;;;;;;;2073800;28;20055;-74
2023/12/23 04:24:06;;;;;;;1.77;1.67;;;;;;;;;;2079596;28;20068;-76
2023/12/23 04:25:25;;;;;;;1.83;1.40;;;;;;;;;;2080654;28;20037;-75
2023/12/23 04:26:44;;;;;;;2.25;1.67;;;;;;;;;;2081164;28;20072;-74
2023/12/23 04:28:03;;;;;;;1.55;1.35;;;;;;;;;;2074535;28;20046;-75
2023/12/23 04:29:22;;;;;;;3.05;1.90;;;;;;;;;;2073683;28;20069;-75
2023/12/23 04:30:41;;;;;;;1.80;1.55;;;;;;;;;;2080535;28;20029;-76
2023/12/23 04:31:59;;;;;;;1.67;1.35;;;;;;;;;;2073929;28;20022;-75
2023/12/23 04:33:19;;;;;;;1.60;1.50;;;;;;;;;;2078688;28;20033;-75
2023/12/23 04:34:38;;;;;;;1.55;1.33;;;;;;;;;;2074329;28;20034;-75
2023/12/23 04:35:58;;;;;;;1.80;1.70;;;;;;;;;;2078504;28;20026;-76
2023/12/23 04:37:17;;;;;;;1.50;1.23;;;;;;;;;;2075607;28;20030;-75
2023/12/23 04:38:36;;;;;;;1.77;1.63;;;;;;;;;;2073292;28;20510;-75
2023/12/23 04:39:55;;;;;;;1.60;1.35;;;;;;;;;;2066519;28;20511;-75
2023/12/23 04:41:14;;;;;;;1.65;1.40;;;;;;;;;;2077151;28;20029;-76
2023/12/23 04:42:33;;;;;;;1.75;1.65;;;;;;;;;;2076491;28;20041;-76
2023/12/23 04:43:52;;;;;;;2.25;1.77;;;;;;;;;;2078246;28;20486;-75
2023/12/23 04:45:11;;;;;;;1.70;1.55;;;;;;;;;;2076292;28;20042;-75
2023/12/23 04:46:30;;;;;;;1.25;0.95;;;;;;;;;;2080227;28;20021;-75
2023/12/23 04:47:49;;;;;;;2.00;1.25;;;;;;;;;;2077066;28;20029;-75
2023/12/23 04:49:07;;;;;;;3.33;1.83;;;;;;;;;;2079139;28;20038;-75
2023/12/23 04:50:26;;;;;;;2.92;1.15;;;;;;;;;;2078535;28;20411;-75
2023/12/23 04:51:45;;;;;;;2.42;1.83;;;;;;;;;;2076621;28;20442;-75
2023/12/23 04:53:04;;;;;;;2.95;1.60;;;;;;;;;;2073427;28;20038;-75
2023/12/23 04:54:23;;;;;;;1.65;1.55;;;;;;;;;;2077358;28;20041;-76
2023/12/23 04:55:43;;;;;;;1.35;1.23;;;;;;;;;;2072901;28;20026;-75
2023/12/23 04:57:02;;;;;;;1.80;1.50;;;;;;;;;;2077351;28;20025;-75
2023/12/23 04:58:21;;;;;;;2.42;1.95;;;;;;;;;;2076156;28;20045;-76
2023/12/23 04:59:40;;;;;;;2.30;2.03;;;;;;;;;;2072856;28;20034;-75
2023/12/23 05:00:59;;;;;;;1.38;1.27;;;;;;;;;;2075868;28;20029;-75
2023/12/23 05:02:18;;;;;;;1.80;1.40;;;;;;;;;;2072163;28;20017;-75
2023/12/23 05:03:37;;;;;;;1.48;1.38;;;;;;;;;;2078658;28;20037;-75
2023/12/23 05:04:57;;;;;;;1.48;1.20;;;;;;;;;;2082025;28;20041;-76
2023/12/23 05:06:17;;;;;;;1.58;1.48;;;;;;;;;;2076454;28;20531;-75
2023/12/23 05:07:36;;;;;;;2.08;1.88;;;;;;;;;;2078731;28;20026;-75
2023/12/23 05:08:55;;;;;;;2.17;1.48;;;;;;;;;;2074591;28;20034;-75
2023/12/23 05:10:14;;;;;;;3.25;1.92;;;;;;;;;;2078526;28;20033;-75
2023/12/23 05:11:33;;;;;;;2.08;1.73;;;;;;;;;;2080201;28;20118;-77
2023/12/23 05:12:52;;;;;;;2.50;1.90;;;;;;;;;;2081338;28;20491;-77
2023/12/23 05:14:11;;;;;;;1.75;1.65;;;;;;;;;;2080258;28;20029;-75
2023/12/23 05:15:29;;;;;;;2.03;1.83;;;;;;;;;;2082008;28;20054;-75
2023/12/23 05:16:48;;;;;;;3.25;1.90;;;;;;;;;;2080237;28;20086;-74
2023/12/23 05:18:07;;;;;;;1.55;1.40;;;;;;;;;;2073642;28;20027;-76
2023/12/23 05:19:26;;;;;;;2.75;1.40;;;;;;;;;;2078715;28;20017;-75
2023/12/23 05:20:45;;;;;;;3.35;2.13;;;;;;;;;;2082371;28;20022;-77
2023/12/23 05:22:04;;;;;;;1.30;0.80;;;;;;;;;;2074638;28;20432;-75
2023/12/23 05:23:24;;;;;;;2.03;1.83;;;;;;;;;;2079274;28;20037;-75
2023/12/23 05:24:43;;;;;;;2.88;1.42;;;;;;;;;;2078862;28;20034;-75
2023/12/23 05:26:02;;;;;;;1.60;1.50;;;;;;;;;;2081295;28;20395;-77
2023/12/23 05:27:21;;;;;;;2.08;1.58;;;;;;;;;;2081571;28;20029;-74
2023/12/23 05:28:39;;;;;;;1.67;1.58;;;;;;;;;;2076035;28;20053;-74
2023/12/23 05:29:58;;;;;;;2.78;1.85;;;;;;;;;;2079167;28;20033;-75
2023/12/23 05:31:17;;;;;;;1.83;1.67;;;;;;;;;;2080622;28;20030;-75
2023/12/23 05:32:36;;;;;;;3.45;2.20;;;;;;;;;;2075024;28;20112;-75
2023/12/23 05:33:56;;;;;;;2.90;2.00;;;;;;;;;;2077691;28;20064;-75
2023/12/23 05:35:15;;;;;;;2.47;2.10;;;;;;;;;;2080603;28;20425;-75
2023/12/23 05:36:34;;;;;;;5.95;1.95;;;;;;;;;;2075403;28;20496;-75
2023/12/23 05:37:53;;;;;;;2.05;1.83;;;;;;;;;;2079049;28;20033;-75
2023/12/23 05:39:12;;;;;;;3.42;2.35;;;;;;;;;;2075381;28;20018;-75
2023/12/23 05:40:30;;;;;;;2.20;2.00;;;;;;;;;;2078928;28;20033;-74
2023/12/23 05:41:49;;;;;;;2.10;1.65;;;;;;;;;;2080911;28;20041;-75
2023/12/23 05:43:08;;;;;;;2.72;2.25;;;;;;;;;;2080980;28;20022;-75
2023/12/23 05:44:27;;;;;;;4.00;2.50;;;;;;;;;;2081321;28;20021;-74
2023/12/23 05:45:47;;;;;;;4.15;2.05;;;;;;;;;;2072801;28;20021;-75
2023/12/23 05:47:06;;;;;;;2.53;2.13;;;;;;;;;;2076752;28;20569;-75
2023/12/23 05:48:26;;;;;;;2.10;1.90;;;;;;;;;;2079374;28;20554;-75
2023/12/23 05:49:45;;;;;;;3.35;2.05;;;;;;;;;;2075335;28;20046;-75
2023/12/23 05:51:07;;;;;;;2.30;2.10;;;;;;;;;;2077581;28;20034;-75
2023/12/23 05:52:26;;;;;;;2.20;2.00;;;;;;;;;;2081823;28;20022;-75
2023/12/23 05:53:44;;;;;;;3.05;2.17;;;;;;;;;;2080633;28;20013;-75
2023/12/23 05:55:04;;;;;;;3.38;2.42;;;;;;;;;;2080030;28;20029;-75
2023/12/23 05:56:22;;;;;;;2.50;2.15;;;;;;;;;;2080257;28;20030;-75
2023/12/23 05:57:41;;;;;;;2.45;1.98;;;;;;;;;;2076406;28;20034;-75
2023/12/23 05:59:00;;;;;;;2.05;1.92;;;;;;;;;;2072147;28;20022;-75
2023/12/23 06:00:20;;;;;;;3.03;1.80;;;;;;;;;;2073934;28;20030;-74
2023/12/23 06:01:39;;;;;;;2.58;2.05;;;;;;;;;;2079014;28;20034;-77
2023/12/23 06:02:58;;;;;;;2.80;2.58;;;;;;;;;;2082041;28;20030;-74
2023/12/23 06:04:17;;;;;;;2.78;2.13;;;;;;;;;;2074687;28;20029;-75
2023/12/23 06:05:36;;;;;;;3.35;2.58;;;;;;;;;;2078097;28;20104;-75
2023/12/23 06:06:55;;;;;;;7.18;2.42;;;;;;;;;;2080169;28;20030;-75
2023/12/23 06:08:14;;;;;;;3.40;2.40;;;;;;;;;;2075777;28;20017;-75
2023/12/23 06:09:34;;;;;;;1.92;1.73;;;;;;;;;;2072245;28;20033;-75
2023/12/23 06:10:53;;;;;;;2.58;2.38;;;;;;;;;;2080431;28;20034;-76
2023/12/23 06:12:11;;;;;;;1.45;1.35;;;;;;;;;;2080795;28;20108;-75
2023/12/23 06:13:30;;;;;;;2.25;1.92;;;;;;;;;;2075330;28;20030;-75
2023/12/23 06:14:50;;;;;;;2.22;1.95;;;;;;;;;;2077423;28;20068;-75
2023/12/23 06:16:09;;;;;;;2.58;2.38;;;;;;;;;;2074643;28;20506;-75
2023/12/23 06:17:28;;;;;;;2.67;2.47;;;;;;;;;;2072491;28;20046;-75
2023/12/23 06:18:46;;;;;;;2.95;2.05;;;;;;;;;;2075359;28;20498;-74
2023/12/23 06:20:05;;;;;;;2.55;2.30;;;;;;;;;;2080144;28;20025;-75
2023/12/23 06:21:24;;;;;;;2.63;2.42;;;;;;;;;;2081246;28;20033;-76
2023/12/23 06:22:43;;;;;;;2.83;2.53;;;;;;;;;;2080452;28;20033;-75
2023/12/23 06:24:02;;;;;;;2.63;2.42;;;;;;;;;;2080544;28;20041;-75
2023/12/23 06:25:21;;;;;;;2.17;2.00;;;;;;;;;;2074293;28;20486;-74
2023/12/23 06:26:40;;;;;;;2.50;2.30;;;;;;;;;;2076772;28;20037;-77
2023/12/23 06:27:59;;;;;;;2.63;2.42;;;;;;;;;;2079672;28;20045;-75
2023/12/23 06:29:18;;;;;;;5.85;2.58;;;;;;;;;;2063639;28;20419;-76
2023/12/23 06:30:37;;;;;;;2.53;2.33;;;;;;;;;;2060304;28;20038;-75
2023/12/23 06:32:00;;;;;;;2.50;2.08;;;;;;;;;;2061578;28;20037;-75
2023/12/23 06:33:19;;;;;;;2.50;2.30;;;;;;;;;;2063922;28;20026;-75
2023/12/23 06:34:38;;;;;;;3.47;2.75;;;;;;;;;;2061657;28;20034;-75
2023/12/23 06:35:57;;;;;;;4.35;2.42;;;;;;;;;;2060916;28;20031;-75
2023/12/23 06:37:16;;;;;;;2.60;2.40;;;;;;;;;;2062710;28;20030;-74
2023/12/23 06:38:38;;;;;;;3.08;2.78;;;;;;;;;;2069220;28;20507;-74
2023/12/23 06:39:59;;;;;;;3.00;2.70;;;;;;;;;;2068928;28;20034;-75
2023/12/23 06:41:18;;;;;;;2.22;2.00;;;;;;;;;;2063455;28;20058;-75
2023/12/23 06:42:37;;;;;;;2.47;1.92;;;;;;;;;;2069991;28;20053;-77
2023/12/23 06:43:56;;;;;;;2.75;1.92;;;;;;;;;;2068153;28;20031;-75
2023/12/23 06:45:16;;;;;;;2.95;2.15;;;;;;;;;;2068207;28;20038;-75
2023/12/23 06:46:35;;;;;;;2.38;2.17;;;;;;;;;;2073513;28;20015;-76
2023/12/23 06:47:54;;;;;;;2.97;2.78;;;;;;;;;;2073164;28;20030;-75
2023/12/23 06:49:13;;;;;;;2.70;2.30;;;;;;;;;;2076511;28;20029;-78
2023/12/23 06:50:32;;;;;;;2.65;2.45;;;;;;;;;;2072012;28;20022;-76
2023/12/23 06:51:51;;;;;;;2.55;2.15;;;;;;;;;;2067411;28;20034;-75
2023/12/23 06:53:10;;;;;;;2.85;2.10;;;;;;;;;;2067777;28;20031;-75
2023/12/23 06:54:29;;;;;;;2.70;2.50;;;;;;;;;;2069939;28;20067;-74
2023/12/23 06:55:49;;;;;;;2.65;1.92;;;;;;;;;;2069087;28;20030;-74
2023/12/23 06:57:08;;;;;;;3.03;2.72;;;;;;;;;;2073401;28;20018;-76
2023/12/23 06:58:30;;;;;;;3.08;2.78;;;;;;;;;;2068499;28;20568;-75
2023/12/23 06:59:49;;;;;;;2.35;2.13;;;;;;;;;;2073496;28;20031;-77
2023/12/23 07:01:08;;;;;;;2.67;2.40;;;;;;;;;;2073926;28;20034;-77
2023/12/23 07:02:27;;;;;;;3.65;2.10;;;;;;;;;;2071577;28;20086;-74
2023/12/23 07:03:46;;;;;;;2.72;2.53;;;;;;;;;;2070364;28;20030;-74
2023/12/23 07:05:05;;;;;;;2.50;2.30;;;;;;;;;;2069664;28;20030;-75
2023/12/23 07:06:24;;;;;;;1.98;1.77;;;;;;;;;;2070082;28;20098;-74
2023/12/23 07:07:43;;;;;;;2.95;2.38;;;;;;;;;;2064200;28;20035;-74
2023/12/23 07:09:02;;;;;;;4.40;2.17;;;;;;;;;;2063830;28;20031;-75
2023/12/23 07:10:21;;;;;;;2.20;2.00;;;;;;;;;;2064169;28;20081;-75
2023/12/23 07:11:40;;;;;;;3.05;2.75;;;;;;;;;;2063563;28;20031;-73
2023/12/23 07:12:59;;;;;;;3.20;2.22;;;;;;;;;;2059878;28;20022;-76
2023/12/23 07:14:18;;;;;;;2.60;2.40;;;;;;;;;;2060825;28;20030;-75
2023/12/23 07:15:37;;;;;;;2.55;2.20;;;;;;;;;;2060097;28;20039;-73
2023/12/23 07:16:56;;;;;;;2.35;2.10;;;;;;;;;;2060484;28;20023;-75
2023/12/23 07:18:15;;;;;;;2.60;2.40;;;;;;;;;;2063565;28;20019;-75
2023/12/23 07:19:33;;;;;;;2.88;2.67;;;;;;;;;;2064905;28;20035;-74
2023/12/23 07:20:54;;;;;;;3.40;1.85;;;;;;;;;;2063234;28;20801;-75
2023/12/23 07:22:13;;;;;;;2.25;2.00;;;;;;;;;;2063896;28;20488;-75
2023/12/23 07:23:32;;;;;;;3.25;1.95;;;;;;;;;;2066747;28;20050;-75
2023/12/23 07:24:50;;;;;;;2.33;1.92;;;;;;;;;;2066223;28;20026;-75
2023/12/23 07:26:13;;;;;;;2.60;2.40;;;;;;;;;;2070815;28;20057;-75
2023/12/23 07:27:32;;;;;;;2.20;2.00;;;;;;;;;;2066940;28;20030;-77
2023/12/23 07:28:51;;;;;;;2.78;2.25;;;;;;;;;;2074845;28;20038;-75
2023/12/23 07:30:10;;;;;;;2.72;2.50;;;;;;;;;;2075152;28;20052;-75
2023/12/23 07:31:32;;;;;;;2.72;2.25;;;;;;;;;;2077995;28;20038;-75
2023/12/23 07:32:51;;;;;;;2.90;2.70;;;;;;;;;;2076402;28;20117;-75
2023/12/23 07:34:10;;;;;;;2.40;2.20;;;;;;;;;;2078422;28;20081;-75
2023/12/23 07:35:29;;;;;;;2.40;2.20;;;;;;;;;;2074494;28;20046;-76
2023/12/23 07:36:48;;;;;;;2.95;2.28;;;;;;;;;;2078273;28;20030;-77
2023/12/23 07:38:08;;;;;;;2.65;2.45;;;;;;;;;;2079472;28;20053;-78
2023/12/23 07:39:26;;;;;;;2.55;2.00;;;;;;;;;;2074274;28;20033;-77
2023/12/23 07:40:45;;;;;;;2.47;2.28;;;;;;;;;;2078758;28;20391;-74
2023/12/23 07:42:04;;;;;;;2.80;1.95;;;;;;;;;;2079670;28;20473;-75
2023/12/23 07:43:23;;;;;;;2.60;2.40;;;;;;;;;;2080106;28;20280;-77
2023/12/23 07:44:42;;;;;;;2.00;1.77;;;;;;;;;;2080715;28;20038;-77
2023/12/23 07:46:00;;;;;;;3.28;2.00;;;;;;;;;;2080599;28;20483;-76
2023/12/23 07:47:19;;;;;;;2.40;2.20;;;;;;;;;;2074913;28;20117;-77
2023/12/23 07:48:39;;;;;;;2.40;2.20;;;;;;;;;;2075636;28;20038;-77
2023/12/23 07:49:59;;;;;;;2.08;1.88;;;;;;;;;;2079139;28;20030;-78
2023/12/23 07:51:19;;;;;;;2.28;2.08;;;;;;;;;;2075744;28;20494;-76
2023/12/23 07:52:39;;;;;;;2.33;2.13;;;;;;;;;;2067874;28;20034;-76
2023/12/23 07:53:58;;;;;;;2.47;1.67;;;;;;;;;;2077129;28;20026;-77
2023/12/23 07:55:17;;;;;;;3.05;2.22;;;;;;;;;;2075734;28;20042;-76